createdAt,value
2018-11-21T00:01:02.328Z,96306.05
2018-11-21T00:03:31.569Z,96306.10
2018-11-21T00:06:00.855Z,96306.28
2018-11-21T00:08:30.133Z,96301.29
2018-11-21T00:10:59.426Z,96304.56
2018-11-21T00:13:48.028Z,96305.77
2018-11-21T00:19:10.933Z,96310.37
2018-11-21T00:21:40.033Z,96320.80
2018-11-21T00:24:09.215Z,96326.98
2018-11-21T00:26:38.317Z,96319.55
2018-11-21T00:29:07.411Z,96316.14
2018-11-21T00:31:36.598Z,96319.45
2018-11-21T00:34:05.752Z,96316.95
2018-11-21T00:36:34.980Z,96315.36
2018-11-21T00:39:06.068Z,96312.05
2018-11-21T00:41:35.164Z,96312.16
2018-11-21T00:44:04.314Z,96318.82
2018-11-21T00:46:33.414Z,96318.82
2018-11-21T00:49:02.503Z,96318.06
2018-11-21T00:51:31.621Z,96319.73
2018-11-21T00:54:00.813Z,96327.61
2018-11-21T00:56:29.985Z,96327.31
2018-11-21T00:58:59.113Z,96328.18
2018-11-21T01:01:28.250Z,96330.25
2018-11-21T01:03:57.384Z,96332.46
2018-11-21T01:06:26.521Z,96336.68
2018-11-21T01:08:56.038Z,96342.45
2018-11-21T01:11:25.167Z,96344.17
2018-11-21T01:13:54.260Z,96349.95
2018-11-21T01:16:24.120Z,96345.77
2018-11-21T01:18:54.142Z,96342.13
2018-11-21T01:21:24.122Z,96342.13
2018-11-21T01:23:54.170Z,96345.43
2018-11-21T01:26:24.116Z,96343.74
2018-11-21T01:28:54.291Z,96333.63
2018-11-21T01:31:24.190Z,96347.59
2018-11-21T01:33:54.208Z,96342.78
2018-11-21T01:36:24.381Z,96346.58
2018-11-21T01:38:54.284Z,96348.50
2018-11-21T01:41:24.386Z,96352.06
2018-11-21T01:43:54.611Z,96348.94
2018-11-21T01:46:24.392Z,96356.67
2018-11-21T01:48:54.433Z,96349.41
2018-11-21T01:51:24.471Z,96343.41
2018-11-21T01:53:54.398Z,96338.28
2018-11-21T01:56:24.521Z,96332.38
2018-11-21T01:58:54.424Z,96348.94
2018-11-21T02:01:24.545Z,96335.92
2018-11-21T02:03:54.507Z,96331.83
2018-11-21T02:06:24.519Z,96323.53
2018-11-21T02:08:54.568Z,96323.81
2018-11-21T02:11:24.566Z,96329.87
2018-11-21T02:13:54.626Z,96327.37
2018-11-21T02:16:24.657Z,96331.41
2018-11-21T02:18:54.703Z,96328.76
2018-11-21T02:21:24.713Z,96328.76
2018-11-21T02:23:54.690Z,96314.35
2018-11-21T02:26:24.696Z,96324.88
2018-11-21T02:28:54.745Z,96322.38
2018-11-21T02:31:24.862Z,96322.86
2018-11-21T02:33:54.995Z,96327.04
2018-11-21T02:36:24.916Z,96326.70
2018-11-21T02:38:54.932Z,96324.34
2018-11-21T02:41:24.907Z,96331.26
2018-11-21T02:43:54.829Z,96342.59
2018-11-21T02:46:24.900Z,96330.34
2018-11-21T02:48:54.916Z,96323.20
2018-11-21T02:51:24.922Z,96336.30
2018-11-21T02:53:54.918Z,96331.36
2018-11-21T02:57:06.248Z,96342.25
2018-11-21T02:59:58.660Z,96340.62
2018-11-21T03:02:27.788Z,96339.37
2018-11-21T03:04:56.956Z,96333.17
2018-11-21T03:08:04.511Z,96343.94
2018-11-21T03:10:33.892Z,96346.05
2018-11-21T03:13:03.137Z,96350.76
2018-11-21T03:15:32.383Z,96354.50
2018-11-21T03:18:22.880Z,96362.28
2018-11-21T03:20:52.168Z,96370.50
2018-11-21T03:23:21.470Z,96368.92
2018-11-21T03:25:50.746Z,96379.58
2018-11-21T03:28:43.374Z,96375.97
2018-11-21T03:31:12.614Z,96384.34
2018-11-21T03:33:41.795Z,96384.23
2018-11-21T03:36:11.089Z,96374.25
2018-11-21T03:38:40.289Z,96379.92
2018-11-21T03:41:09.530Z,96376.55
2018-11-21T03:46:27.016Z,96366.99
2018-11-21T03:49:14.821Z,96362.09
2018-11-21T03:52:05.347Z,96359.94
2018-11-21T03:54:54.889Z,96354.45
2018-11-21T03:57:44.908Z,96361.90
2018-11-21T04:00:35.348Z,96360.65
2018-11-21T04:03:25.878Z,96367.43
2018-11-21T04:06:15.956Z,96368.23
2018-11-21T04:09:06.314Z,96373.23
2018-11-21T04:11:56.941Z,96386.88
2018-11-21T04:14:47.320Z,96395.56
2018-11-21T04:17:38.941Z,96403.11
2018-11-21T04:20:28.182Z,96410.70
2018-11-21T04:23:18.177Z,96416.51
2018-11-21T04:26:08.636Z,96416.51
2018-11-21T04:28:59.261Z,96419.00
2018-11-21T04:31:49.828Z,96418.14
2018-11-21T04:34:40.461Z,96428.08
2018-11-21T04:37:29.756Z,96432.27
2018-11-21T04:40:20.314Z,96438.98
2018-11-21T04:43:10.111Z,96438.17
2018-11-21T04:46:00.688Z,96447.30
2018-11-21T04:48:51.629Z,96454.41
2018-11-21T04:54:27.059Z,96452.48
2018-11-21T04:57:16.461Z,96449.99
2018-11-21T05:00:06.006Z,96451.69
2018-11-21T05:02:56.661Z,96452.48
2018-11-21T05:05:45.573Z,96455.66
2018-11-21T05:08:36.035Z,96459.16
2018-11-21T05:11:25.657Z,96458.77
2018-11-21T05:14:15.649Z,96463.10
2018-11-21T05:17:05.435Z,96461.23
2018-11-21T05:19:57.181Z,96462.48
2018-11-21T05:22:46.692Z,96466.67
2018-11-21T05:25:37.204Z,96466.67
2018-11-21T05:28:26.703Z,96466.28
2018-11-21T05:31:17.408Z,96464.17
2018-11-21T05:34:06.997Z,96461.56
2018-11-21T05:36:57.568Z,96459.80
2018-11-21T05:39:50.015Z,96467.23
2018-11-21T05:42:40.095Z,96469.73
2018-11-21T05:45:30.731Z,96464.73
2018-11-21T05:48:22.934Z,96461.38
2018-11-21T05:51:13.543Z,96468.59
2018-11-21T05:54:03.566Z,96463.96
2018-11-21T05:56:54.152Z,96462.58
2018-11-21T05:59:43.726Z,96458.72
2018-11-21T06:02:35.131Z,96464.49
2018-11-21T06:05:24.658Z,96466.21
2018-11-21T06:08:15.213Z,96467.56
2018-11-21T06:11:04.813Z,96469.63
2018-11-21T06:13:55.433Z,96477.56
2018-11-21T06:16:44.972Z,96473.70
2018-11-21T06:19:36.400Z,96473.81
2018-11-21T06:22:25.976Z,96468.38
2018-11-21T06:25:16.354Z,96468.48
2018-11-21T06:28:05.849Z,96476.89
2018-11-21T06:30:56.449Z,96488.94
2018-11-21T06:33:45.502Z,96504.95
2018-11-21T06:36:36.339Z,96504.95
2018-11-21T06:39:26.934Z,96507.45
2018-11-21T06:42:16.468Z,96505.86
2018-11-21T06:45:06.041Z,96507.88
2018-11-21T06:47:56.699Z,96507.45
2018-11-21T06:50:48.724Z,96517.19
2018-11-21T06:53:39.345Z,96518.91
2018-11-21T06:56:28.672Z,96522.29
2018-11-21T06:59:19.879Z,96527.42
2018-11-21T07:02:11.602Z,96539.22
2018-11-21T07:05:01.163Z,96534.70
2018-11-21T07:07:51.967Z,96539.47
2018-11-21T07:10:41.661Z,96549.13
2018-11-21T07:13:33.294Z,96547.87
2018-11-21T07:16:22.867Z,96558.31
2018-11-21T07:19:13.545Z,96557.98
2018-11-21T07:22:03.220Z,96556.50
2018-11-21T07:24:53.743Z,96558.22
2018-11-21T07:27:43.262Z,96564.00
2018-11-21T07:30:33.887Z,96566.50
2018-11-21T07:33:24.423Z,96565.25
2018-11-21T07:36:14.658Z,96566.16
2018-11-21T07:39:04.327Z,96565.72
2018-11-21T07:41:55.950Z,96572.55
2018-11-21T07:44:45.510Z,96564.24
2018-11-21T07:47:36.181Z,96566.64
2018-11-21T07:50:28.945Z,96571.16
2018-11-21T07:53:20.129Z,96566.64
2018-11-21T07:56:11.882Z,96573.66
2018-11-21T07:59:01.491Z,96572.08
2018-11-21T08:02:07.285Z,96570.05
2018-11-21T08:05:00.568Z,96569.30
2018-11-21T08:08:02.041Z,96574.34
2018-11-21T08:11:09.120Z,96576.45
2018-11-21T08:14:20.633Z,96575.27
2018-11-21T08:17:28.035Z,96577.77
2018-11-21T08:20:30.217Z,96573.78
2018-11-21T08:23:30.048Z,96569.70
2018-11-21T08:26:35.716Z,96577.09
2018-11-21T08:29:25.502Z,96572.09
2018-11-21T08:32:17.046Z,96572.20
2018-11-21T08:35:09.498Z,96572.20
2018-11-21T08:38:00.256Z,96587.20
2018-11-21T08:40:49.439Z,96598.11
2018-11-21T08:43:40.032Z,96600.50
2018-11-21T08:46:30.372Z,96598.78
2018-11-21T08:49:19.366Z,96601.28
2018-11-21T08:52:10.918Z,96607.09
2018-11-21T08:55:08.805Z,96613.00
2018-11-21T08:57:54.275Z,96620.61
2018-11-21T09:00:43.818Z,96622.77
2018-11-21T09:03:35.549Z,96617.44
2018-11-21T09:06:25.103Z,96616.13
2018-11-21T09:09:15.279Z,96619.13
2018-11-21T09:12:08.703Z,96620.86
2018-11-21T09:14:55.729Z,96616.77
2018-11-21T09:17:45.258Z,96624.37
2018-11-21T09:20:35.526Z,96622.69
2018-11-21T09:23:25.096Z,96622.69
2018-11-21T09:26:15.445Z,96613.80
2018-11-21T09:29:05.108Z,96620.91
2018-11-21T09:31:56.693Z,96624.71
2018-11-21T09:34:46.327Z,96613.36
2018-11-21T09:37:36.927Z,96618.57
2018-11-21T09:40:32.309Z,96618.57
2018-11-21T09:43:23.657Z,96616.06
2018-11-21T09:46:17.231Z,96619.09
2018-11-21T09:49:03.594Z,96622.17
2018-11-21T09:51:56.199Z,96620.53
2018-11-21T09:54:45.820Z,96629.73
2018-11-21T09:57:37.432Z,96630.17
2018-11-21T10:00:54.980Z,96628.14
2018-11-21T10:03:46.863Z,96622.34
2018-11-21T10:06:37.522Z,96614.97
2018-11-21T10:09:30.042Z,96613.77
2018-11-21T10:12:21.336Z,96615.08
2018-11-21T10:15:12.211Z,96621.91
2018-11-21T10:18:01.781Z,96622.01
2018-11-21T10:20:52.381Z,96617.00
2018-11-21T10:23:42.759Z,96621.57
2018-11-21T10:26:33.358Z,96614.56
2018-11-21T10:29:22.784Z,96607.10
2018-11-21T10:32:13.384Z,96601.09
2018-11-21T10:35:03.012Z,96602.81
2018-11-21T10:37:53.287Z,96599.84
2018-11-21T10:40:42.728Z,96602.39
2018-11-21T10:43:33.771Z,96612.92
2018-11-21T10:46:23.576Z,96611.77
2018-11-21T10:49:14.178Z,96605.52
2018-11-21T10:52:04.807Z,96605.52
2018-11-21T10:54:54.936Z,96608.93
2018-11-21T10:57:45.159Z,96606.53
2018-11-21T11:00:48.479Z,96602.91
2018-11-21T11:03:41.318Z,96609.61
2018-11-21T11:06:43.501Z,96604.11
2018-11-21T11:09:46.939Z,96609.17
2018-11-21T11:13:06.753Z,96612.69
2018-11-21T11:16:21.524Z,96617.69
2018-11-21T11:19:25.998Z,96617.01
2018-11-21T11:22:28.121Z,96617.79
2018-11-21T11:25:38.626Z,96612.78
2018-11-21T11:28:51.661Z,96611.20
2018-11-21T11:31:56.705Z,96618.75
2018-11-21T11:35:00.234Z,96617.55
2018-11-21T11:38:01.726Z,96621.44
2018-11-21T11:41:06.088Z,96618.46
2018-11-21T11:44:21.482Z,96617.21
2018-11-21T11:47:25.096Z,96624.62
2018-11-21T11:50:41.719Z,96624.14
2018-11-21T11:53:50.376Z,96622.89
2018-11-21T11:56:52.540Z,96618.80
2018-11-21T12:00:01.210Z,96618.02
2018-11-21T12:03:04.659Z,96616.77
2018-11-21T12:06:06.813Z,96627.17
2018-11-21T12:09:07.811Z,96624.72
2018-11-21T12:12:10.317Z,96629.05
2018-11-21T12:15:16.559Z,96631.50
2018-11-21T12:18:28.840Z,96632.70
2018-11-21T12:21:31.825Z,96639.78
2018-11-21T12:24:37.680Z,96636.11
2018-11-21T12:27:51.482Z,96635.73
2018-11-21T12:30:54.681Z,96634.96
2018-11-21T12:33:59.352Z,96632.90
2018-11-21T12:37:04.362Z,96631.55
2018-11-21T12:40:23.143Z,96628.13
2018-11-21T12:43:34.996Z,96620.28
2018-11-21T12:46:51.573Z,96615.72
2018-11-21T12:49:54.703Z,96623.70
2018-11-21T12:53:00.479Z,96612.34
2018-11-21T12:56:02.288Z,96615.80
2018-11-21T12:59:04.378Z,96615.85
2018-11-21T13:02:17.452Z,96615.52
2018-11-21T13:05:23.203Z,96618.45
2018-11-21T13:08:23.264Z,96623.46
2018-11-21T13:11:26.420Z,96626.77
2018-11-21T13:14:29.807Z,96626.69
2018-11-21T13:17:25.054Z,96632.56
2018-11-21T13:20:31.169Z,96627.55
2018-11-21T13:23:39.475Z,96631.78
2018-11-21T13:26:42.914Z,96635.06
2018-11-21T13:29:53.758Z,96644.21
2018-11-21T13:32:57.182Z,96646.22
2018-11-21T13:36:01.190Z,96645.88
2018-11-21T13:39:06.886Z,96645.17
2018-11-21T13:42:16.505Z,96646.33
2018-11-21T13:45:17.207Z,96658.40
2018-11-21T13:48:19.957Z,96652.68
2018-11-21T13:51:19.292Z,96653.73
2018-11-21T13:54:19.720Z,96655.52
2018-11-21T13:57:09.340Z,96658.83
2018-11-21T13:59:59.999Z,96654.22
2018-11-21T14:02:49.853Z,96650.02
2018-11-21T14:05:40.460Z,96651.66
2018-11-21T14:08:31.122Z,96655.52
2018-11-21T14:11:19.954Z,96657.24
2018-11-21T14:14:10.637Z,96658.94
2018-11-21T14:17:00.255Z,96663.94
2018-11-21T14:19:49.937Z,96661.44
2018-11-21T14:22:39.517Z,96675.67
2018-11-21T14:25:31.615Z,96674.86
2018-11-21T14:28:22.264Z,96682.38
2018-11-21T14:31:12.962Z,96688.63
2018-11-21T14:34:02.590Z,96691.66
2018-11-21T14:36:54.068Z,96695.70
2018-11-21T14:39:43.585Z,96691.47
2018-11-21T14:42:34.150Z,96693.54
2018-11-21T14:45:28.730Z,96693.87
2018-11-21T14:48:19.935Z,96697.19
2018-11-21T14:51:12.190Z,96692.19
2018-11-21T14:54:02.333Z,96698.02
2018-11-21T14:56:55.450Z,96701.72
2018-11-21T14:59:45.678Z,96707.98
2018-11-21T15:02:37.071Z,96717.22
2018-11-21T15:05:27.496Z,96719.72
2018-11-21T15:08:19.851Z,96721.41
2018-11-21T15:11:10.430Z,96713.91
2018-11-21T15:14:02.260Z,96713.91
2018-11-21T15:16:55.440Z,96728.25
2018-11-21T15:19:45.785Z,96729.94
2018-11-21T15:22:37.120Z,96732.44
2018-11-21T15:25:29.275Z,96743.60
2018-11-21T15:28:20.584Z,96740.63
2018-11-21T15:31:12.086Z,96739.84
2018-11-21T15:34:03.668Z,96740.70
2018-11-21T15:36:54.158Z,96752.26
2018-11-21T15:39:45.454Z,96756.02
2018-11-21T15:42:35.843Z,96753.95
2018-11-21T15:45:30.168Z,96755.78
2018-11-21T15:48:21.790Z,96766.23
2018-11-21T15:51:13.361Z,96764.59
2018-11-21T15:54:04.832Z,96764.20
2018-11-21T15:56:55.886Z,96773.84
2018-11-21T15:59:47.153Z,96765.17
2018-11-21T16:02:37.475Z,96768.98
2018-11-21T16:05:28.765Z,96772.79
2018-11-21T16:08:22.374Z,96761.80
2018-11-21T16:11:13.912Z,96777.84
2018-11-21T16:14:04.804Z,96769.08
2018-11-21T16:16:56.010Z,96774.56
2018-11-21T16:19:47.684Z,96783.87
2018-11-21T16:22:39.247Z,96785.66
2018-11-21T16:25:30.657Z,96792.30
2018-11-21T16:28:22.601Z,96789.02
2018-11-21T16:31:12.690Z,96794.91
2018-11-21T16:34:03.283Z,96787.06
2018-11-21T16:36:54.587Z,96796.74
2018-11-21T16:39:44.236Z,96792.98
2018-11-21T16:42:34.836Z,96799.38
2018-11-21T16:45:26.407Z,96805.75
2018-11-21T16:48:18.107Z,96814.46
2018-11-21T16:51:07.781Z,96809.40
2018-11-21T16:53:58.454Z,96816.10
2018-11-21T16:56:47.810Z,96816.48
2018-11-21T16:59:38.447Z,96814.41
2018-11-21T17:02:28.001Z,96818.61
2018-11-21T17:05:18.656Z,96819.33
2018-11-21T17:08:08.989Z,96818.94
2018-11-21T17:10:59.835Z,96818.55
2018-11-21T17:13:49.535Z,96821.11
2018-11-21T17:16:40.095Z,96822.02
2018-11-21T17:19:30.773Z,96824.05
2018-11-21T17:22:21.554Z,96825.45
2018-11-21T17:25:11.233Z,96829.98
2018-11-21T17:28:02.507Z,96836.24
2018-11-21T17:30:52.338Z,96826.22
2018-11-21T17:33:42.148Z,96830.45
2018-11-21T17:36:32.806Z,96828.73
2018-11-21T17:39:23.771Z,96822.80
2018-11-21T17:42:14.469Z,96830.69
2018-11-21T17:45:04.142Z,96832.61
